createdAt,value
2023-05-07T00:01:27.339Z,4.95
2023-05-07T00:03:56.280Z,4.84
2023-05-07T00:06:25.588Z,4.99
2023-05-07T00:08:53.474Z,4.90
2023-05-07T00:11:21.907Z,4.95
2023-05-07T00:13:49.814Z,4.81
2023-05-07T00:16:17.946Z,4.86
2023-05-07T00:18:46.245Z,4.75
2023-05-07T00:21:14.651Z,4.82
2023-05-07T00:23:42.444Z,4.95
2023-05-07T00:26:10.942Z,4.97
2023-05-07T00:28:39.790Z,4.94
2023-05-07T00:31:07.713Z,4.89
2023-05-07T00:33:35.419Z,4.94
2023-05-07T00:36:04.013Z,4.90
2023-05-07T00:38:32.419Z,4.85
2023-05-07T00:41:00.897Z,4.84
2023-05-07T00:43:28.853Z,4.91
2023-05-07T00:45:57.416Z,4.79
2023-05-07T00:48:26.313Z,4.91
2023-05-07T00:50:54.783Z,4.79
2023-05-07T00:53:22.638Z,4.91
2023-05-07T00:55:51.160Z,4.92
2023-05-07T00:58:19.087Z,4.77
2023-05-07T01:00:47.739Z,4.80
2023-05-07T01:03:16.294Z,4.92
2023-05-07T01:05:46.807Z,4.87
2023-05-07T01:08:16.457Z,4.87
2023-05-07T01:10:45.655Z,4.84
2023-05-07T01:13:15.393Z,4.87
2023-05-07T01:15:44.791Z,4.94
2023-05-07T01:18:13.074Z,4.89
2023-05-07T01:20:41.856Z,4.89
2023-05-07T01:23:10.656Z,4.78
2023-05-07T01:25:39.272Z,4.77
2023-05-07T01:28:08.189Z,4.73
2023-05-07T01:30:42.790Z,4.76
2023-05-07T01:33:13.089Z,4.66
2023-05-07T01:35:44.011Z,4.64
2023-05-07T01:38:12.409Z,4.50
2023-05-07T01:40:41.101Z,4.60
2023-05-07T01:43:09.145Z,4.52
2023-05-07T01:45:39.850Z,4.57
2023-05-07T01:48:09.102Z,4.61
2023-05-07T01:50:38.152Z,4.63
2023-05-07T01:53:06.066Z,4.65
2023-05-07T01:55:34.238Z,4.63
2023-05-07T01:58:02.692Z,4.48
2023-05-07T02:00:31.509Z,4.58
2023-05-07T02:02:59.786Z,4.48
2023-05-07T02:05:47.571Z,4.43
2023-05-07T02:08:27.488Z,4.47
2023-05-07T02:10:56.576Z,4.26
2023-05-07T02:13:26.092Z,4.40
2023-05-07T02:15:55.035Z,4.35
2023-05-07T02:18:25.178Z,4.39
2023-05-07T02:20:53.543Z,4.41
2023-05-07T02:23:21.512Z,4.32
2023-05-07T02:25:49.951Z,4.34
2023-05-07T02:28:18.471Z,4.32
2023-05-07T02:30:56.884Z,4.38
2023-05-07T02:33:24.864Z,4.37
2023-05-07T02:35:53.203Z,4.32
2023-05-07T02:38:21.326Z,4.23
2023-05-07T02:40:49.869Z,4.26
2023-05-07T02:43:18.793Z,4.28
2023-05-07T02:45:49.962Z,4.26
2023-05-07T02:48:17.843Z,4.20
2023-05-07T02:50:46.001Z,4.30
2023-05-07T02:53:16.756Z,4.30
2023-05-07T02:55:45.475Z,4.37
2023-05-07T02:58:13.570Z,4.24
2023-05-07T03:00:43.549Z,4.27
2023-05-07T03:03:23.959Z,4.23
2023-05-07T03:05:52.150Z,4.21
2023-05-07T03:08:19.922Z,4.21
2023-05-07T03:10:48.455Z,4.17
2023-05-07T03:13:16.377Z,4.22
2023-05-07T03:15:44.826Z,4.31
2023-05-07T03:18:12.734Z,4.27
2023-05-07T03:20:40.959Z,4.34
2023-05-07T03:23:08.999Z,4.22
2023-05-07T03:25:37.511Z,4.22
2023-05-07T03:28:05.382Z,4.33
2023-05-07T03:30:42.981Z,4.43
2023-05-07T03:33:10.704Z,4.37
2023-05-07T03:35:39.806Z,4.47
2023-05-07T03:38:07.771Z,4.40
2023-05-07T03:40:38.491Z,4.47
2023-05-07T03:43:07.129Z,4.55
2023-05-07T03:45:38.841Z,4.52
2023-05-07T03:48:17.967Z,4.49
2023-05-07T03:50:47.745Z,4.45
2023-05-07T03:53:17.545Z,4.41
2023-05-07T03:55:46.110Z,4.38
2023-05-07T03:58:13.947Z,4.44
2023-05-07T04:00:42.643Z,4.34
2023-05-07T04:03:24.132Z,4.34
2023-05-07T04:05:53.384Z,4.35
2023-05-07T04:08:21.710Z,4.36
2023-05-07T04:10:58.008Z,4.40
2023-05-07T04:13:28.599Z,4.33
2023-05-07T04:15:57.980Z,4.35
2023-05-07T04:18:26.996Z,4.33
2023-05-07T04:20:56.299Z,4.32
2023-05-07T04:23:24.200Z,4.35
2023-05-07T04:25:52.598Z,4.33
2023-05-07T04:28:26.166Z,4.40
2023-05-07T04:30:54.952Z,4.40
2023-05-07T04:33:23.775Z,4.40
2023-05-07T04:35:53.488Z,4.47
2023-05-07T04:38:21.211Z,4.46
2023-05-07T04:40:52.639Z,4.43
2023-05-07T04:43:26.376Z,4.58
2023-05-07T04:45:54.891Z,4.58
2023-05-07T04:48:26.456Z,4.64
2023-05-07T04:50:56.115Z,4.56
2023-05-07T04:53:25.218Z,4.71
2023-05-07T04:55:58.530Z,4.78
2023-05-07T04:58:33.107Z,4.80
2023-05-07T05:01:02.337Z,4.88
2023-05-07T05:03:31.712Z,4.88
2023-05-07T05:06:00.904Z,4.90
2023-05-07T05:08:32.698Z,4.99
2023-05-07T05:11:04.116Z,5.04
2023-05-07T05:13:34.239Z,5.15
2023-05-07T05:16:08.604Z,5.30
2023-05-07T05:18:37.077Z,5.16
2023-05-07T05:21:05.543Z,5.16
2023-05-07T05:23:34.597Z,5.17
2023-05-07T05:26:03.523Z,5.27
2023-05-07T05:28:33.894Z,5.18
2023-05-07T05:31:02.913Z,5.14
2023-05-07T05:33:34.659Z,5.07
2023-05-07T05:36:06.641Z,5.14
2023-05-07T05:38:34.752Z,5.22
2023-05-07T05:41:03.957Z,5.03
2023-05-07T05:43:32.415Z,4.96
2023-05-07T05:46:02.082Z,5.16
2023-05-07T05:48:31.119Z,5.17
2023-05-07T05:51:02.084Z,5.18
2023-05-07T05:53:30.491Z,5.22
2023-05-07T05:55:59.134Z,5.30
2023-05-07T05:58:27.034Z,5.38
2023-05-07T06:01:00.430Z,5.40
2023-05-07T06:03:29.818Z,5.41
2023-05-07T06:06:01.614Z,5.44
2023-05-07T06:08:33.275Z,5.42
2023-05-07T06:11:04.220Z,5.48
2023-05-07T06:13:35.114Z,5.44
2023-05-07T06:16:03.807Z,5.45
2023-05-07T06:18:31.761Z,5.36
2023-05-07T06:21:01.017Z,5.44
2023-05-07T06:23:32.235Z,5.45
2023-05-07T06:26:01.668Z,5.52
2023-05-07T06:28:38.345Z,5.59
2023-05-07T06:31:17.933Z,5.69
2023-05-07T06:33:52.211Z,5.68
2023-05-07T06:36:21.844Z,5.79
2023-05-07T06:38:50.031Z,5.76
2023-05-07T06:41:19.016Z,5.78
2023-05-07T06:43:47.520Z,5.87
2023-05-07T06:46:36.036Z,5.83
2023-05-07T06:49:06.257Z,5.84
2023-05-07T06:51:34.379Z,5.81
2023-05-07T06:54:05.833Z,5.88
2023-05-07T06:56:35.993Z,5.85
2023-05-07T06:59:05.850Z,5.88
2023-05-07T07:01:37.870Z,6.05
2023-05-07T07:04:07.592Z,6.17
2023-05-07T07:06:35.841Z,6.25
2023-05-07T07:09:08.392Z,6.27
2023-05-07T07:11:36.749Z,6.31
2023-05-07T07:14:06.890Z,6.36
2023-05-07T07:16:39.554Z,6.41
2023-05-07T07:19:08.288Z,6.45
2023-05-07T07:21:36.013Z,6.53
2023-05-07T07:24:05.288Z,6.46
2023-05-07T07:26:33.133Z,6.58
2023-05-07T07:29:01.751Z,6.73
2023-05-07T07:31:29.475Z,6.86
2023-05-07T07:33:57.837Z,6.68
2023-05-07T07:36:35.434Z,6.69
2023-05-07T07:39:14.857Z,6.58
2023-05-07T07:41:43.122Z,6.69
2023-05-07T07:44:16.104Z,6.73
2023-05-07T07:46:47.921Z,6.75
2023-05-07T07:49:16.408Z,6.73
2023-05-07T07:51:44.667Z,6.79
2023-05-07T07:54:13.719Z,6.94
2023-05-07T07:56:41.585Z,7.07
2023-05-07T07:59:10.969Z,7.20
2023-05-07T08:01:41.255Z,7.24
2023-05-07T08:04:09.494Z,7.17
2023-05-07T08:06:40.846Z,7.04
2023-05-07T08:09:10.519Z,7.02
2023-05-07T08:11:40.395Z,7.00
2023-05-07T08:14:08.845Z,6.99
2023-05-07T08:16:36.865Z,7.13
2023-05-07T08:19:04.811Z,7.19
2023-05-07T08:21:34.488Z,7.34
2023-05-07T08:24:03.120Z,7.35
2023-05-07T08:26:30.728Z,7.44
2023-05-07T08:28:58.525Z,7.53
2023-05-07T08:31:26.515Z,7.61
2023-05-07T08:33:54.389Z,7.57
2023-05-07T08:36:21.885Z,7.41
2023-05-07T08:38:50.781Z,7.45
2023-05-07T08:41:19.041Z,7.46
2023-05-07T08:43:52.910Z,7.56
2023-05-07T08:46:22.389Z,7.93
2023-05-07T08:48:53.149Z,7.95
2023-05-07T08:51:21.971Z,7.98
2023-05-07T08:53:51.253Z,8.02
2023-05-07T08:56:25.021Z,7.98
2023-05-07T08:58:57.835Z,7.91
2023-05-07T09:01:26.701Z,8.05
2023-05-07T09:03:56.684Z,8.27
2023-05-07T09:06:25.206Z,8.43
2023-05-07T09:08:57.440Z,8.50
2023-05-07T09:11:29.090Z,8.63
2023-05-07T09:14:03.970Z,8.63
2023-05-07T09:16:37.931Z,8.55
2023-05-07T09:19:05.811Z,8.38
2023-05-07T09:21:34.603Z,8.31
2023-05-07T09:24:05.484Z,8.26
2023-05-07T09:26:37.075Z,8.27
2023-05-07T09:29:06.832Z,8.27
2023-05-07T09:31:38.969Z,8.31
2023-05-07T09:34:09.161Z,8.31
2023-05-07T09:36:39.419Z,8.46
2023-05-07T09:39:07.589Z,8.62
2023-05-07T09:41:45.790Z,9.14
2023-05-07T09:44:20.657Z,9.25
2023-05-07T09:46:55.163Z,8.96
2023-05-07T09:49:34.179Z,8.88
2023-05-07T09:52:07.767Z,8.82
2023-05-07T09:54:39.145Z,8.71
2023-05-07T09:57:08.710Z,8.78
2023-05-07T09:59:39.152Z,8.99
2023-05-07T10:02:09.904Z,9.33
2023-05-07T10:04:44.542Z,9.56
2023-05-07T10:07:12.989Z,9.81
2023-05-07T10:09:43.727Z,9.84
2023-05-07T10:12:19.202Z,9.86
2023-05-07T10:14:49.811Z,9.53
2023-05-07T10:17:19.212Z,9.37
2023-05-07T10:19:48.998Z,9.16
2023-05-07T10:22:17.978Z,9.26
2023-05-07T10:24:50.715Z,9.23
2023-05-07T10:27:20.163Z,9.14
2023-05-07T10:30:02.769Z,9.22
2023-05-07T10:32:53.135Z,9.43
2023-05-07T10:35:34.228Z,9.62
2023-05-07T10:38:05.394Z,9.91
2023-05-07T10:40:36.550Z,9.92
2023-05-07T10:43:09.284Z,9.84
2023-05-07T10:45:44.777Z,9.61
2023-05-07T10:51:24.369Z,9.78
2023-05-07T10:54:12.642Z,10.23
2023-05-07T10:56:49.252Z,10.33
2023-05-07T10:59:27.908Z,10.29
2023-05-07T11:02:09.311Z,10.19
2023-05-07T11:05:26.924Z,9.98
2023-05-07T11:08:03.518Z,9.90
2023-05-07T11:10:59.763Z,9.82
2023-05-07T11:13:49.703Z,9.73
2023-05-07T11:16:31.691Z,9.88
2023-05-07T11:19:18.811Z,9.93
2023-05-07T11:21:50.819Z,9.95
2023-05-07T11:24:44.040Z,9.91
2023-05-07T11:27:14.487Z,9.88
2023-05-07T11:29:48.923Z,9.87
2023-05-07T11:32:16.871Z,9.86
2023-05-07T11:34:56.308Z,9.78
2023-05-07T11:37:25.934Z,9.77
2023-05-07T11:40:10.338Z,9.75
2023-05-07T11:42:40.067Z,9.90
2023-05-07T11:45:09.425Z,9.82
2023-05-07T11:47:37.352Z,9.72
2023-05-07T11:50:10.008Z,9.78
2023-05-07T11:52:39.713Z,10.19
2023-05-07T11:55:09.484Z,10.47
2023-05-07T11:57:37.298Z,10.70
2023-05-07T12:00:06.676Z,10.48
2023-05-07T12:02:40.404Z,10.30
2023-05-07T12:05:08.937Z,10.18
2023-05-07T12:07:37.892Z,10.16
2023-05-07T12:10:07.484Z,10.14
2023-05-07T12:12:43.310Z,10.33
2023-05-07T12:15:12.105Z,10.31
2023-05-07T12:17:40.343Z,10.53
2023-05-07T12:20:09.362Z,10.72
2023-05-07T12:22:38.254Z,10.67
2023-05-07T12:25:07.244Z,10.71
2023-05-07T12:27:39.692Z,10.84
2023-05-07T12:30:08.478Z,10.98
2023-05-07T12:32:38.102Z,10.95
2023-05-07T12:35:08.156Z,10.92
2023-05-07T12:37:37.268Z,10.77
2023-05-07T12:40:10.187Z,10.81
2023-05-07T12:42:39.613Z,10.80
2023-05-07T12:45:18.616Z,10.62
2023-05-07T12:47:48.895Z,10.63
2023-05-07T12:50:18.226Z,10.79
2023-05-07T12:52:47.241Z,10.83
2023-05-07T12:55:16.954Z,10.95
2023-05-07T12:57:49.454Z,10.78
2023-05-07T13:00:18.675Z,10.65
2023-05-07T13:02:47.041Z,10.74
2023-05-07T13:05:15.405Z,10.82
2023-05-07T13:07:54.292Z,11.03
2023-05-07T13:10:24.181Z,11.02
2023-05-07T13:12:52.317Z,11.26
2023-05-07T13:15:21.184Z,11.26
2023-05-07T13:17:49.009Z,11.33
2023-05-07T13:20:17.204Z,11.34
2023-05-07T13:22:45.040Z,11.33
2023-05-07T13:25:13.979Z,11.24
2023-05-07T13:27:42.111Z,11.36
2023-05-07T13:30:10.411Z,11.33
2023-05-07T13:32:38.474Z,11.43
2023-05-07T13:35:07.446Z,11.43
2023-05-07T13:37:35.169Z,11.26
2023-05-07T13:40:03.594Z,11.21
2023-05-07T13:42:32.347Z,11.19
2023-05-07T13:45:00.799Z,11.17
2023-05-07T13:47:28.930Z,11.33
2023-05-07T13:49:57.294Z,11.48
2023-05-07T13:52:25.401Z,11.50
2023-05-07T13:54:53.725Z,11.45
2023-05-07T13:57:21.485Z,11.50
2023-05-07T13:59:49.882Z,11.54
2023-05-07T14:02:17.866Z,11.60
2023-05-07T14:04:46.763Z,11.60
2023-05-07T14:07:14.915Z,11.64
2023-05-07T14:09:43.507Z,11.55
2023-05-07T14:12:11.405Z,11.58
2023-05-07T14:14:40.001Z,11.68
2023-05-07T14:17:07.924Z,11.70
2023-05-07T14:19:36.259Z,11.65
2023-05-07T14:22:03.982Z,11.65
2023-05-07T14:24:38.491Z,11.65
2023-05-07T14:27:07.417Z,11.62
2023-05-07T14:29:37.002Z,11.69
2023-05-07T14:32:04.844Z,11.86
2023-05-07T14:34:33.486Z,11.73
2023-05-07T14:37:02.035Z,11.70
2023-05-07T14:39:30.850Z,11.63
2023-05-07T14:41:59.264Z,11.81
2023-05-07T14:44:27.476Z,11.70
2023-05-07T14:46:56.508Z,11.55
2023-05-07T14:49:25.245Z,11.66
2023-05-07T14:51:53.094Z,11.53
2023-05-07T14:54:21.687Z,11.57
2023-05-07T14:56:49.524Z,11.55
2023-05-07T14:59:21.038Z,11.59
2023-05-07T15:01:49.350Z,11.47
2023-05-07T15:04:17.660Z,11.57
2023-05-07T15:06:45.526Z,11.70
2023-05-07T15:09:13.784Z,11.93
2023-05-07T15:11:41.699Z,11.81
2023-05-07T15:14:10.206Z,11.87
2023-05-07T15:16:38.081Z,11.93
2023-05-07T15:19:06.510Z,11.90
2023-05-07T15:21:36.222Z,11.85
2023-05-07T15:24:04.947Z,11.80
2023-05-07T15:26:32.726Z,11.77
2023-05-07T15:29:01.207Z,11.66
2023-05-07T15:31:29.084Z,11.69
2023-05-07T15:33:57.741Z,11.72
2023-05-07T15:36:26.427Z,11.83
2023-05-07T15:38:54.753Z,11.73
2023-05-07T15:41:22.499Z,11.68
2023-05-07T15:43:52.076Z,11.67
2023-05-07T15:46:21.328Z,11.73
2023-05-07T15:48:49.649Z,11.67
2023-05-07T15:51:18.177Z,11.67
2023-05-07T15:53:45.985Z,11.66
2023-05-07T15:56:13.944Z,11.59
2023-05-07T15:58:42.110Z,11.61
2023-05-07T16:01:09.749Z,11.49
2023-05-07T16:03:39.153Z,11.66
2023-05-07T16:06:06.969Z,11.67
2023-05-07T16:08:35.144Z,11.76
2023-05-07T16:11:02.621Z,11.77
2023-05-07T16:13:30.851Z,11.69
2023-05-07T16:15:59.359Z,11.74
2023-05-07T16:18:27.404Z,11.79
2023-05-07T16:20:55.091Z,11.68
2023-05-07T16:23:22.974Z,11.69
2023-05-07T16:25:50.672Z,11.77
2023-05-07T16:28:18.858Z,11.90
2023-05-07T16:30:46.322Z,11.82
2023-05-07T16:33:14.234Z,11.84
2023-05-07T16:35:41.870Z,11.84
2023-05-07T16:38:11.696Z,11.73
2023-05-07T16:40:40.394Z,11.85
2023-05-07T16:43:08.710Z,11.84
2023-05-07T16:45:36.653Z,11.74
2023-05-07T16:48:05.754Z,11.67
2023-05-07T16:50:33.451Z,11.69
2023-05-07T16:53:01.762Z,11.65
2023-05-07T16:55:36.192Z,11.60
2023-05-07T16:58:07.141Z,11.74
2023-05-07T17:00:49.237Z,11.78
2023-05-07T17:03:19.689Z,11.74
2023-05-07T17:05:47.185Z,11.59
2023-05-07T17:08:15.619Z,11.54
2023-05-07T17:10:43.479Z,11.49
2023-05-07T17:13:11.609Z,11.38
2023-05-07T17:15:41.646Z,11.38
2023-05-07T17:18:09.846Z,11.24
2023-05-07T17:20:37.677Z,11.22
2023-05-07T17:23:06.282Z,11.16
2023-05-07T17:25:35.814Z,11.15
2023-05-07T17:28:04.085Z,11.13
2023-05-07T17:30:31.774Z,11.07
2023-05-07T17:33:09.298Z,11.06
2023-05-07T17:35:44.788Z,10.95
2023-05-07T17:38:12.648Z,10.90
2023-05-07T17:40:40.415Z,10.82
2023-05-07T17:43:08.386Z,10.77
2023-05-07T17:45:36.615Z,10.71
2023-05-07T17:48:07.054Z,10.63
2023-05-07T17:50:34.478Z,10.37
2023-05-07T17:53:02.510Z,10.27
2023-05-07T17:55:30.832Z,10.24
2023-05-07T17:57:58.928Z,10.17
2023-05-07T18:00:26.350Z,10.03
2023-05-07T18:02:54.143Z,9.89
2023-05-07T18:05:21.866Z,9.73
2023-05-07T18:07:50.089Z,9.59
2023-05-07T18:10:17.665Z,9.44
2023-05-07T18:12:45.698Z,9.28
2023-05-07T18:15:13.153Z,9.14
2023-05-07T18:17:41.199Z,9.00
2023-05-07T18:20:11.910Z,8.76
2023-05-07T18:22:39.861Z,8.78
2023-05-07T18:25:08.153Z,8.71
2023-05-07T18:27:36.696Z,8.57
2023-05-07T18:30:04.328Z,8.41
2023-05-07T18:32:32.284Z,8.27
2023-05-07T18:35:00.009Z,8.11
2023-05-07T18:37:28.584Z,8.00
2023-05-07T18:39:56.346Z,7.96
2023-05-07T18:42:24.189Z,8.02
2023-05-07T18:44:51.791Z,8.11
2023-05-07T18:47:19.676Z,8.17
2023-05-07T18:49:46.890Z,8.22
2023-05-07T18:52:16.605Z,8.27
2023-05-07T18:54:44.222Z,8.25
2023-05-07T18:57:11.758Z,8.26
2023-05-07T18:59:39.152Z,8.29
2023-05-07T19:02:07.110Z,8.25
2023-05-07T19:04:34.869Z,8.27
2023-05-07T19:07:02.558Z,8.25
2023-05-07T19:09:30.294Z,8.20
2023-05-07T19:11:58.885Z,8.11
2023-05-07T19:14:27.146Z,8.15
2023-05-07T19:16:54.694Z,8.09
2023-05-07T19:19:23.007Z,8.05
2023-05-07T19:21:50.732Z,8.03
2023-05-07T19:24:19.202Z,7.97
2023-05-07T19:26:47.041Z,7.94
2023-05-07T19:29:18.140Z,7.86
2023-05-07T19:31:46.055Z,7.71
2023-05-07T19:34:14.399Z,7.61
2023-05-07T19:36:42.401Z,7.47
2023-05-07T19:39:10.740Z,7.32
2023-05-07T19:41:38.121Z,7.21
2023-05-07T19:44:05.891Z,7.03
2023-05-07T19:46:33.530Z,6.91
2023-05-07T19:49:01.975Z,6.76
2023-05-07T19:51:32.566Z,6.60
2023-05-07T19:54:00.571Z,6.48
2023-05-07T19:56:28.121Z,6.32
2023-05-07T19:58:56.311Z,6.13
2023-05-07T20:01:24.252Z,5.99
2023-05-07T20:03:52.838Z,5.78
2023-05-07T20:06:20.797Z,5.66
2023-05-07T20:08:49.106Z,5.58
2023-05-07T20:11:17.044Z,5.44
2023-05-07T20:13:45.486Z,5.28
2023-05-07T20:16:13.753Z,5.23
2023-05-07T20:18:41.800Z,5.13
2023-05-07T20:21:09.236Z,5.02
2023-05-07T20:23:37.055Z,5.02
2023-05-07T20:26:04.393Z,4.92
2023-05-07T20:28:32.491Z,4.81
2023-05-07T20:30:59.712Z,4.67
2023-05-07T20:33:27.632Z,4.56
2023-05-07T20:35:55.220Z,4.44
2023-05-07T20:38:23.173Z,4.32
2023-05-07T20:40:50.952Z,4.21
2023-05-07T20:43:18.824Z,4.14
2023-05-07T20:45:46.575Z,4.02
2023-05-07T20:48:15.036Z,3.90
2023-05-07T20:50:42.420Z,3.79
2023-05-07T20:53:10.485Z,3.74
2023-05-07T20:55:38.129Z,3.61
2023-05-07T20:58:06.047Z,3.57
2023-05-07T21:00:33.562Z,3.50
2023-05-07T21:03:01.450Z,3.43
2023-05-07T21:05:28.930Z,3.33
2023-05-07T21:07:57.561Z,3.27
2023-05-07T21:10:25.712Z,3.18
2023-05-07T21:12:54.102Z,3.21
2023-05-07T21:15:22.178Z,3.16
2023-05-07T21:17:50.522Z,3.12
2023-05-07T21:20:18.881Z,3.08
2023-05-07T21:22:47.202Z,3.05
2023-05-07T21:25:15.351Z,3.01
2023-05-07T21:27:43.826Z,2.85
2023-05-07T21:30:12.460Z,2.84
2023-05-07T21:32:40.988Z,2.79
2023-05-07T21:35:09.082Z,2.75
2023-05-07T21:37:37.922Z,2.79
2023-05-07T21:40:06.482Z,2.73
2023-05-07T21:42:35.581Z,2.69
2023-05-07T21:45:06.923Z,2.70
2023-05-07T21:47:35.592Z,2.64
2023-05-07T21:50:03.911Z,2.60
2023-05-07T21:52:32.253Z,2.60
2023-05-07T21:55:00.239Z,2.51
2023-05-07T21:57:28.798Z,2.50
2023-05-07T21:59:56.577Z,2.45
2023-05-07T22:02:25.129Z,2.40
2023-05-07T22:04:52.920Z,2.38
2023-05-07T22:07:21.349Z,2.35
2023-05-07T22:09:49.334Z,2.29
2023-05-07T22:12:17.790Z,2.28
2023-05-07T22:14:45.581Z,2.26
2023-05-07T22:17:13.627Z,2.20
2023-05-07T22:19:41.621Z,2.11
2023-05-07T22:22:09.613Z,2.10
2023-05-07T22:24:37.645Z,2.03
2023-05-07T22:27:06.316Z,1.98
2023-05-07T22:29:34.507Z,1.93
2023-05-07T22:32:02.822Z,1.77
2023-05-07T22:34:30.753Z,1.78
2023-05-07T22:36:59.110Z,1.68
2023-05-07T22:39:27.214Z,1.59
2023-05-07T22:41:55.450Z,1.51
2023-05-07T22:44:23.373Z,1.46
2023-05-07T22:46:51.659Z,1.42
2023-05-07T22:49:19.314Z,1.39
2023-05-07T22:51:47.641Z,1.35
2023-05-07T22:54:16.038Z,1.35
2023-05-07T22:56:44.318Z,1.36
2023-05-07T22:59:12.657Z,1.29
2023-05-07T23:01:41.182Z,1.30
2023-05-07T23:04:09.001Z,1.28
2023-05-07T23:06:37.401Z,1.26
2023-05-07T23:09:05.365Z,1.18
2023-05-07T23:11:33.435Z,1.15
2023-05-07T23:14:01.105Z,1.17
2023-05-07T23:16:29.286Z,1.16
2023-05-07T23:18:57.185Z,1.16
2023-05-07T23:21:25.803Z,1.15
2023-05-07T23:23:53.396Z,1.14
2023-05-07T23:26:21.993Z,1.10
2023-05-07T23:28:49.729Z,1.08
2023-05-07T23:31:18.103Z,1.06
2023-05-07T23:33:46.114Z,1.04
2023-05-07T23:36:14.312Z,1.00
2023-05-07T23:38:42.043Z,0.94
2023-05-07T23:41:10.310Z,0.88
2023-05-07T23:43:38.151Z,0.80
2023-05-07T23:46:06.624Z,0.72
2023-05-07T23:48:34.432Z,0.60
2023-05-07T23:51:02.867Z,0.62
2023-05-07T23:53:30.296Z,0.58
2023-05-07T23:55:58.579Z,0.52
2023-05-07T23:58:26.838Z,0.46
